createdAt,value
2023-01-17T00:02:08.864Z,3.80
2023-01-17T00:04:54.664Z,3.80
2023-01-17T00:07:42.735Z,3.80
2023-01-17T00:10:14.043Z,3.80
2023-01-17T00:12:48.166Z,3.80
2023-01-17T00:15:19.514Z,3.80
2023-01-17T00:17:47.736Z,3.80
2023-01-17T00:20:34.159Z,3.80
2023-01-17T00:23:20.075Z,3.70
2023-01-17T00:26:06.097Z,3.70
2023-01-17T00:28:36.480Z,3.80
2023-01-17T00:31:04.863Z,3.70
2023-01-17T00:33:31.773Z,3.70
2023-01-17T00:35:59.300Z,3.70
2023-01-17T00:38:27.837Z,3.70
2023-01-17T00:40:54.995Z,3.70
2023-01-17T00:43:41.880Z,3.70
2023-01-17T00:46:28.509Z,3.70
2023-01-17T00:49:14.034Z,3.70
2023-01-17T00:51:59.339Z,3.70
2023-01-17T00:54:44.957Z,3.70
2023-01-17T00:57:30.223Z,3.70
2023-01-17T01:00:15.808Z,3.70
2023-01-17T01:03:02.726Z,3.70
2023-01-17T01:05:48.150Z,3.80
2023-01-17T01:08:36.173Z,3.80
2023-01-17T01:11:24.918Z,3.80
2023-01-17T01:14:10.328Z,3.70
2023-01-17T01:16:55.789Z,3.80
2023-01-17T01:19:42.714Z,3.80
2023-01-17T01:22:28.395Z,3.80
2023-01-17T01:25:14.149Z,3.80
2023-01-17T01:27:59.570Z,3.80
2023-01-17T01:30:45.306Z,3.90
2023-01-17T01:33:20.472Z,3.90
2023-01-17T01:35:51.575Z,4.00
2023-01-17T01:38:20.829Z,4.00
2023-01-17T01:40:51.541Z,3.90
2023-01-17T01:43:21.579Z,4.00
2023-01-17T01:45:53.702Z,4.10
2023-01-17T01:48:32.765Z,4.10
2023-01-17T01:51:04.637Z,4.10
2023-01-17T01:53:35.697Z,4.00
2023-01-17T01:56:06.529Z,4.10
2023-01-17T01:58:36.898Z,4.10
2023-01-17T02:01:06.382Z,4.10
2023-01-17T02:03:35.383Z,4.00
2023-01-17T02:06:14.352Z,4.10
2023-01-17T02:08:43.056Z,4.10
2023-01-17T02:11:11.523Z,4.10
2023-01-17T02:13:39.546Z,4.10
2023-01-17T02:16:19.031Z,4.10
2023-01-17T02:18:58.225Z,4.10
2023-01-17T02:21:30.481Z,4.10
2023-01-17T02:24:39.640Z,4.10
2023-01-17T02:27:23.594Z,4.10
2023-01-17T02:30:15.412Z,4.10
2023-01-17T02:32:52.764Z,4.10
2023-01-17T02:35:29.059Z,4.10
2023-01-17T02:38:04.137Z,4.10
2023-01-17T02:40:37.736Z,4.20
2023-01-17T02:43:09.440Z,4.20
2023-01-17T02:45:37.419Z,4.20
2023-01-17T02:48:09.320Z,4.10
2023-01-17T02:50:52.056Z,4.20
2023-01-17T02:53:36.521Z,4.20
2023-01-17T02:56:15.147Z,4.20
2023-01-17T02:59:02.398Z,4.20
2023-01-17T03:01:46.784Z,4.20
2023-01-17T03:04:21.233Z,4.20
2023-01-17T03:06:54.756Z,4.20
2023-01-17T03:09:23.733Z,4.20
2023-01-17T03:11:51.683Z,4.20
2023-01-17T03:14:19.690Z,4.20
2023-01-17T03:16:48.424Z,4.20
2023-01-17T03:19:17.920Z,4.20
2023-01-17T03:21:45.845Z,4.20
2023-01-17T03:24:13.785Z,4.20
2023-01-17T03:26:44.850Z,4.20
2023-01-17T03:29:12.868Z,4.20
2023-01-17T03:31:40.926Z,4.20
2023-01-17T03:34:08.909Z,4.20
2023-01-17T03:36:38.299Z,4.20
2023-01-17T03:39:06.353Z,4.20
2023-01-17T03:41:34.299Z,4.20
2023-01-17T03:44:02.325Z,4.20
2023-01-17T03:46:30.597Z,4.20
2023-01-17T03:48:58.535Z,4.20
2023-01-17T03:51:27.013Z,4.20
2023-01-17T03:53:56.290Z,4.10
2023-01-17T03:56:24.227Z,4.10
2023-01-17T03:58:52.553Z,4.10
2023-01-17T04:01:20.544Z,4.10
2023-01-17T04:03:48.503Z,4.10
2023-01-17T04:06:16.486Z,4.10
2023-01-17T04:08:44.477Z,4.00
2023-01-17T04:11:13.872Z,4.10
2023-01-17T04:13:41.766Z,4.00
2023-01-17T04:16:14.283Z,4.00
2023-01-17T04:18:42.496Z,4.00
2023-01-17T04:21:10.503Z,4.00
2023-01-17T04:23:38.525Z,4.00
2023-01-17T04:26:06.662Z,4.00
2023-01-17T04:28:35.962Z,4.00
2023-01-17T04:31:03.952Z,4.00
2023-01-17T04:33:32.111Z,4.00
2023-01-17T04:36:00.241Z,3.90
2023-01-17T04:38:28.250Z,3.90
2023-01-17T04:40:56.118Z,3.90
2023-01-17T04:43:24.041Z,3.90
2023-01-17T04:45:57.236Z,3.90
2023-01-17T04:48:26.087Z,3.90
2023-01-17T04:51:00.251Z,3.90
2023-01-17T04:53:28.698Z,3.90
2023-01-17T04:55:56.851Z,3.90
2023-01-17T04:58:25.052Z,3.90
2023-01-17T05:00:53.123Z,3.90
2023-01-17T05:03:23.671Z,3.90
2023-01-17T05:05:51.792Z,3.90
2023-01-17T05:08:19.729Z,4.00
2023-01-17T05:10:48.429Z,4.00
2023-01-17T05:13:17.457Z,4.00
2023-01-17T05:15:45.691Z,4.00
2023-01-17T05:18:14.551Z,4.00
2023-01-17T05:20:43.937Z,4.00
2023-01-17T05:23:12.221Z,4.00
2023-01-17T05:25:44.807Z,4.00
2023-01-17T05:28:13.701Z,4.00
2023-01-17T05:30:42.133Z,4.00
2023-01-17T05:33:10.519Z,3.90
2023-01-17T05:35:38.654Z,3.90
2023-01-17T05:38:08.000Z,3.90
2023-01-17T05:40:36.537Z,3.90
2023-01-17T05:43:04.893Z,3.90
2023-01-17T05:45:34.090Z,3.90
2023-01-17T05:48:02.928Z,3.80
2023-01-17T05:50:33.087Z,3.80
2023-01-17T05:53:02.883Z,3.70
2023-01-17T05:55:33.337Z,3.70
2023-01-17T05:58:02.255Z,3.60
2023-01-17T06:00:31.175Z,3.60
2023-01-17T06:03:00.713Z,3.50
2023-01-17T06:05:30.178Z,3.50
2023-01-17T06:07:58.178Z,3.40
2023-01-17T06:10:26.776Z,3.40
2023-01-17T06:13:04.415Z,3.40
2023-01-17T06:15:32.718Z,3.30
2023-01-17T06:18:15.217Z,3.30
2023-01-17T06:20:44.776Z,3.20
2023-01-17T06:23:17.384Z,3.20
2023-01-17T06:25:47.537Z,3.20
2023-01-17T06:28:18.204Z,3.10
2023-01-17T06:30:46.348Z,3.10
2023-01-17T06:33:14.946Z,3.00
2023-01-17T06:35:48.853Z,3.00
2023-01-17T06:38:16.995Z,3.00
2023-01-17T06:40:44.946Z,3.00
2023-01-17T06:43:12.955Z,3.00
2023-01-17T06:45:42.316Z,3.00
2023-01-17T06:48:10.433Z,2.90
2023-01-17T06:50:38.539Z,2.90
2023-01-17T06:53:08.140Z,2.90
2023-01-17T06:55:40.124Z,2.90
2023-01-17T06:58:09.658Z,2.90
2023-01-17T07:00:40.324Z,3.00
2023-01-17T07:03:18.466Z,3.10
2023-01-17T07:05:46.600Z,3.00
2023-01-17T07:08:16.407Z,3.00
2023-01-17T07:10:45.548Z,2.90
2023-01-17T07:13:13.803Z,2.90
2023-01-17T07:15:41.781Z,2.90
2023-01-17T07:18:11.217Z,2.90
2023-01-17T07:20:39.376Z,2.90
2023-01-17T07:23:07.338Z,2.90
2023-01-17T07:25:35.275Z,2.90
2023-01-17T07:28:03.195Z,3.00
2023-01-17T07:30:31.134Z,3.00
2023-01-17T07:32:59.060Z,3.10
2023-01-17T07:35:28.708Z,3.10
2023-01-17T07:37:56.669Z,3.10
2023-01-17T07:40:25.343Z,3.20
2023-01-17T07:42:53.315Z,3.20
2023-01-17T07:45:21.923Z,3.10
2023-01-17T07:47:50.102Z,3.30
2023-01-17T07:50:18.207Z,3.30
2023-01-17T07:52:51.445Z,3.40
2023-01-17T07:55:19.380Z,3.50
2023-01-17T07:57:50.673Z,3.50
2023-01-17T08:00:19.652Z,3.50
2023-01-17T08:02:47.623Z,3.50
2023-01-17T08:05:15.953Z,3.60
2023-01-17T08:07:43.874Z,3.60
2023-01-17T08:10:17.885Z,3.60
2023-01-17T08:12:47.000Z,3.70
2023-01-17T08:15:15.654Z,3.70
2023-01-17T08:17:47.007Z,3.70
2023-01-17T08:20:15.210Z,3.70
2023-01-17T08:22:43.559Z,3.70
2023-01-17T08:25:13.554Z,3.70
2023-01-17T08:27:41.734Z,3.70
2023-01-17T08:30:10.877Z,3.70
2023-01-17T08:32:40.658Z,3.80
2023-01-17T08:35:09.263Z,3.80
2023-01-17T08:37:38.443Z,4.00
2023-01-17T08:40:07.911Z,4.10
2023-01-17T08:42:39.692Z,4.20
2023-01-17T08:45:10.136Z,4.20
2023-01-17T08:47:38.591Z,4.20
2023-01-17T08:50:07.748Z,4.20
2023-01-17T08:52:36.065Z,4.20
2023-01-17T08:55:05.769Z,4.20
2023-01-17T08:57:33.788Z,4.20
2023-01-17T09:00:03.551Z,4.20
2023-01-17T09:02:31.490Z,4.20
2023-01-17T09:05:00.738Z,4.30
2023-01-17T09:07:28.992Z,4.30
2023-01-17T09:09:56.949Z,4.40
2023-01-17T09:12:25.721Z,4.40
2023-01-17T09:14:53.699Z,4.50
2023-01-17T09:17:23.022Z,4.50
2023-01-17T09:19:50.961Z,4.60
2023-01-17T09:22:19.065Z,4.50
2023-01-17T09:24:47.368Z,4.50
2023-01-17T09:27:15.353Z,4.60
2023-01-17T09:29:43.391Z,4.60
2023-01-17T09:32:11.451Z,4.70
2023-01-17T09:34:40.717Z,4.70
2023-01-17T09:37:08.648Z,4.70
2023-01-17T09:39:36.627Z,4.70
2023-01-17T09:42:18.385Z,4.70
2023-01-17T09:44:51.535Z,4.80
2023-01-17T09:47:29.497Z,4.70
2023-01-17T09:50:08.558Z,4.70
2023-01-17T09:52:36.573Z,4.80
2023-01-17T09:55:07.894Z,4.80
2023-01-17T09:57:45.040Z,4.80
2023-01-17T10:00:23.278Z,4.80
2023-01-17T10:03:04.423Z,4.80
2023-01-17T10:05:50.719Z,4.80
2023-01-17T10:08:32.550Z,4.80
2023-01-17T10:11:17.900Z,4.80
2023-01-17T10:13:54.539Z,4.80
2023-01-17T10:16:35.618Z,4.90
2023-01-17T10:19:17.801Z,4.90
2023-01-17T10:22:02.432Z,4.90
2023-01-17T10:24:48.180Z,4.90
2023-01-17T10:27:21.181Z,5.00
2023-01-17T10:29:50.807Z,4.90
2023-01-17T10:32:20.578Z,4.90
2023-01-17T10:34:51.464Z,5.00
2023-01-17T10:37:24.374Z,5.00
2023-01-17T10:39:56.249Z,5.00
2023-01-17T10:42:29.975Z,5.10
2023-01-17T10:45:05.315Z,5.20
2023-01-17T10:47:39.461Z,5.20
2023-01-17T10:50:13.150Z,5.20
2023-01-17T10:52:48.885Z,5.30
2023-01-17T10:55:29.566Z,5.30
2023-01-17T10:57:58.913Z,5.30
2023-01-17T11:00:39.835Z,5.40
2023-01-17T11:03:10.776Z,5.30
2023-01-17T11:05:40.694Z,5.40
2023-01-17T11:08:11.807Z,5.30
2023-01-17T11:10:43.686Z,5.30
2023-01-17T11:13:30.868Z,5.30
2023-01-17T11:16:02.237Z,5.40
2023-01-17T11:18:32.535Z,5.30
2023-01-17T11:21:15.728Z,5.30
2023-01-17T11:23:46.384Z,5.30
2023-01-17T11:26:25.172Z,5.30
2023-01-17T11:28:53.544Z,5.30
2023-01-17T11:31:27.220Z,5.30
2023-01-17T11:34:14.823Z,5.30
2023-01-17T11:36:43.066Z,5.30
2023-01-17T11:39:27.512Z,5.40
2023-01-17T11:41:56.076Z,5.40
2023-01-17T11:44:26.622Z,5.40
2023-01-17T11:47:24.726Z,5.50
2023-01-17T11:49:52.778Z,5.50
2023-01-17T11:52:25.141Z,5.50
2023-01-17T11:54:56.246Z,5.60
2023-01-17T11:57:27.037Z,5.60
2023-01-17T12:00:03.651Z,5.60
2023-01-17T12:03:06.726Z,5.70
2023-01-17T12:05:43.360Z,5.70
2023-01-17T12:08:23.163Z,5.70
2023-01-17T12:10:59.275Z,5.70
2023-01-17T12:13:57.906Z,5.70
2023-01-17T12:16:38.968Z,5.70
2023-01-17T12:19:34.546Z,5.70
2023-01-17T12:22:23.373Z,5.70
2023-01-17T12:25:04.231Z,5.70
2023-01-17T12:27:42.692Z,5.70
2023-01-17T12:30:32.935Z,5.70
2023-01-17T12:33:12.087Z,5.70
2023-01-17T12:35:44.887Z,5.70
2023-01-17T12:38:31.770Z,5.70
2023-01-17T12:41:07.258Z,5.70
2023-01-17T12:43:40.496Z,5.70
2023-01-17T12:46:20.782Z,5.70
2023-01-17T12:48:55.169Z,5.70
2023-01-17T12:51:29.393Z,5.70
2023-01-17T12:54:01.660Z,5.70
2023-01-17T12:56:34.519Z,5.80
2023-01-17T12:59:13.849Z,5.80
2023-01-17T13:01:44.880Z,5.90
2023-01-17T13:04:19.571Z,6.00
2023-01-17T13:06:57.973Z,6.10
2023-01-17T13:09:28.019Z,6.10
2023-01-17T13:12:01.429Z,6.10
2023-01-17T13:14:30.821Z,5.90
2023-01-17T13:17:01.466Z,5.90
2023-01-17T13:19:38.974Z,5.80
2023-01-17T13:22:10.404Z,5.70
2023-01-17T13:24:48.696Z,5.70
2023-01-17T13:27:35.382Z,5.70
2023-01-17T13:30:54.051Z,5.80
2023-01-17T13:33:35.360Z,5.80
2023-01-17T13:36:16.767Z,5.80
2023-01-17T13:39:08.676Z,5.80
2023-01-17T13:41:46.849Z,5.80
2023-01-17T13:44:33.148Z,5.80
2023-01-17T13:47:04.508Z,5.70
2023-01-17T13:49:51.521Z,5.70
2023-01-17T13:52:33.606Z,5.60
2023-01-17T13:55:03.301Z,5.50
2023-01-17T13:57:46.740Z,5.50
2023-01-17T14:00:59.500Z,5.40
2023-01-17T14:04:07.448Z,5.40
2023-01-17T14:06:41.687Z,5.30
2023-01-17T14:09:20.096Z,5.20
2023-01-17T14:12:07.612Z,5.20
2023-01-17T14:14:47.806Z,5.10
2023-01-17T14:17:55.729Z,5.10
2023-01-17T14:21:05.195Z,5.00
2023-01-17T14:23:49.242Z,4.90
2023-01-17T14:26:44.713Z,4.80
2023-01-17T14:29:45.900Z,4.70
2023-01-17T14:32:15.731Z,4.60
2023-01-17T14:34:44.935Z,4.50
2023-01-17T14:37:36.049Z,4.40
2023-01-17T14:40:15.153Z,4.40
2023-01-17T14:42:44.094Z,4.30
2023-01-17T14:45:16.955Z,4.20
2023-01-17T14:47:46.005Z,4.10
2023-01-17T14:50:22.969Z,4.10
2023-01-17T14:53:09.205Z,4.00
2023-01-17T14:55:37.855Z,3.90
2023-01-17T14:58:06.291Z,3.80
2023-01-17T15:00:40.654Z,3.80
2023-01-17T15:03:12.645Z,3.70
2023-01-17T15:05:43.698Z,3.70
2023-01-17T15:08:16.115Z,3.60
2023-01-17T15:10:51.825Z,3.60
2023-01-17T15:13:35.414Z,3.50
2023-01-17T15:16:20.253Z,3.40
2023-01-17T15:18:48.719Z,3.30
2023-01-17T15:21:19.276Z,3.30
2023-01-17T15:23:52.464Z,3.20
2023-01-17T15:26:23.201Z,3.10
2023-01-17T15:28:51.857Z,3.10
2023-01-17T15:31:37.831Z,3.00
2023-01-17T15:34:08.086Z,2.90
2023-01-17T15:36:36.535Z,2.80
2023-01-17T15:39:08.639Z,2.80
2023-01-17T15:41:39.549Z,2.80
2023-01-17T15:44:09.164Z,2.70
2023-01-17T15:46:43.984Z,2.70
2023-01-17T15:49:20.203Z,2.60
2023-01-17T15:51:51.254Z,2.50
2023-01-17T15:54:47.459Z,2.50
2023-01-17T15:57:25.801Z,2.40
2023-01-17T15:59:56.246Z,2.40
2023-01-17T16:02:42.771Z,2.40
2023-01-17T16:05:41.797Z,2.30
2023-01-17T16:08:39.488Z,2.40
2023-01-17T16:11:11.745Z,2.30
2023-01-17T16:13:42.214Z,2.30
2023-01-17T16:16:16.165Z,2.30
2023-01-17T16:18:46.488Z,2.20
2023-01-17T16:21:21.665Z,2.20
2023-01-17T16:23:49.909Z,2.20
2023-01-17T16:26:19.553Z,2.20
2023-01-17T16:28:47.939Z,2.20
2023-01-17T16:31:16.919Z,2.20
2023-01-17T16:33:46.031Z,2.20
2023-01-17T16:36:16.536Z,2.20
2023-01-17T16:38:45.535Z,2.10
2023-01-17T16:41:13.913Z,2.10
2023-01-17T16:43:43.301Z,2.10
2023-01-17T16:46:12.864Z,2.10
2023-01-17T16:48:40.931Z,2.10
2023-01-17T16:51:09.570Z,2.10
2023-01-17T16:53:38.209Z,2.20
2023-01-17T16:56:13.665Z,2.20
2023-01-17T16:58:43.476Z,2.20
2023-01-17T17:01:15.391Z,2.20
2023-01-17T17:03:43.885Z,2.20
2023-01-17T17:06:12.707Z,2.20
2023-01-17T17:08:40.939Z,2.20
2023-01-17T17:11:13.216Z,2.20
2023-01-17T17:13:43.794Z,2.10
2023-01-17T17:16:14.949Z,2.10
2023-01-17T17:18:43.753Z,2.10
2023-01-17T17:21:11.910Z,2.10
2023-01-17T17:23:39.886Z,2.00
2023-01-17T17:26:08.154Z,2.00
2023-01-17T17:28:36.751Z,2.00
2023-01-17T17:31:10.418Z,2.00
2023-01-17T17:33:38.796Z,1.90
2023-01-17T17:36:10.127Z,2.00
2023-01-17T17:38:50.784Z,1.90
2023-01-17T17:41:21.712Z,1.90
2023-01-17T17:43:51.159Z,1.90
2023-01-17T17:46:21.640Z,1.90
2023-01-17T17:48:49.745Z,1.90
2023-01-17T17:51:31.121Z,1.90
2023-01-17T17:54:01.556Z,1.80
2023-01-17T17:56:30.807Z,1.80
2023-01-17T17:58:59.598Z,1.80
2023-01-17T18:01:29.174Z,1.80
2023-01-17T18:03:58.616Z,1.80
2023-01-17T18:06:26.631Z,1.80
2023-01-17T18:08:54.979Z,1.80
2023-01-17T18:11:25.997Z,1.80
2023-01-17T18:13:55.916Z,1.80
2023-01-17T18:16:26.641Z,1.80
2023-01-17T18:18:57.235Z,1.80
2023-01-17T18:21:27.056Z,1.80
2023-01-17T18:23:58.672Z,1.80
2023-01-17T18:26:28.229Z,1.80
2023-01-17T18:28:58.107Z,1.90
2023-01-17T18:31:27.574Z,1.80
2023-01-17T18:33:58.824Z,1.80
2023-01-17T18:36:28.575Z,1.80
2023-01-17T18:38:57.016Z,1.70
2023-01-17T18:41:26.956Z,1.70
2023-01-17T18:43:57.980Z,1.70
2023-01-17T18:46:27.293Z,1.60
2023-01-17T18:48:58.032Z,1.60
2023-01-17T18:51:26.730Z,1.50
2023-01-17T18:53:55.011Z,1.50
2023-01-17T18:56:23.796Z,1.40
2023-01-17T18:58:52.279Z,1.40
2023-01-17T19:01:23.225Z,1.30
2023-01-17T19:03:52.881Z,1.30
2023-01-17T19:06:24.872Z,1.30
2023-01-17T19:08:53.456Z,1.30
2023-01-17T19:11:24.362Z,1.30
2023-01-17T19:13:52.527Z,1.20
2023-01-17T19:16:24.411Z,1.20
2023-01-17T19:18:53.083Z,1.20
2023-01-17T19:21:24.243Z,1.20
2023-01-17T19:23:52.687Z,1.20
2023-01-17T19:26:22.891Z,1.20
2023-01-17T19:28:51.014Z,1.20
2023-01-17T19:31:21.897Z,1.20
2023-01-17T19:33:51.666Z,1.10
2023-01-17T19:36:23.528Z,1.20
2023-01-17T19:39:04.097Z,1.20
2023-01-17T19:41:35.151Z,1.20
2023-01-17T19:44:05.251Z,1.20
2023-01-17T19:46:33.572Z,1.30
2023-01-17T19:49:01.846Z,1.30
2023-01-17T19:51:31.194Z,1.40
2023-01-17T19:54:01.340Z,1.40
2023-01-17T19:56:30.068Z,1.50
2023-01-17T19:59:01.356Z,1.60
2023-01-17T20:01:31.705Z,1.60
2023-01-17T20:04:00.809Z,1.60
2023-01-17T20:06:31.764Z,1.60
2023-01-17T20:08:59.964Z,1.60
2023-01-17T20:11:29.100Z,1.60
2023-01-17T20:13:59.276Z,1.50
2023-01-17T20:16:28.937Z,1.50
2023-01-17T20:18:57.755Z,1.50
2023-01-17T20:21:27.910Z,1.40
2023-01-17T20:23:58.442Z,1.40
2023-01-17T20:26:34.650Z,1.30
2023-01-17T20:29:03.430Z,1.30
2023-01-17T20:31:32.170Z,1.30
2023-01-17T20:34:00.286Z,1.20
2023-01-17T20:36:29.027Z,1.20
2023-01-17T20:38:58.484Z,1.20
2023-01-17T20:41:30.115Z,1.20
2023-01-17T20:44:01.198Z,1.20
2023-01-17T20:46:32.343Z,1.20
2023-01-17T20:49:01.207Z,1.20
2023-01-17T20:51:30.522Z,1.20
2023-01-17T20:54:02.647Z,1.20
2023-01-17T20:56:34.490Z,1.20
2023-01-17T20:59:03.714Z,1.20
2023-01-17T21:01:31.984Z,1.10
2023-01-17T21:04:00.167Z,1.10
2023-01-17T21:06:28.342Z,1.10
2023-01-17T21:08:56.552Z,1.00
2023-01-17T21:11:27.502Z,0.90
2023-01-17T21:13:56.310Z,0.80
2023-01-17T21:16:28.063Z,0.80
2023-01-17T21:18:56.044Z,0.70
2023-01-17T21:21:25.792Z,0.60
2023-01-17T21:23:55.257Z,0.50
2023-01-17T21:26:26.921Z,0.50
2023-01-17T21:28:55.882Z,0.40
2023-01-17T21:31:26.147Z,0.40
2023-01-17T21:33:56.234Z,0.30
2023-01-17T21:36:25.934Z,0.30
2023-01-17T21:38:56.824Z,0.20
2023-01-17T21:41:28.442Z,0.20
2023-01-17T21:43:57.710Z,0.20
2023-01-17T21:46:26.778Z,0.20
2023-01-17T21:48:56.638Z,0.20
2023-01-17T21:51:45.238Z,0.20
2023-01-17T21:54:13.324Z,0.10
2023-01-17T21:57:00.011Z,0.10
2023-01-17T21:59:27.884Z,0.10
2023-01-17T22:01:55.899Z,0.10
2023-01-17T22:04:24.513Z,0.10
2023-01-17T22:06:52.577Z,0.10
2023-01-17T22:09:20.485Z,0.20
2023-01-17T22:11:49.758Z,0.20
2023-01-17T22:14:19.571Z,0.20
2023-01-17T22:16:48.566Z,0.20
2023-01-17T22:19:16.759Z,0.30
2023-01-17T22:21:44.751Z,0.30
2023-01-17T22:24:13.798Z,0.20
2023-01-17T22:26:42.003Z,0.20
2023-01-17T22:29:12.652Z,0.20
2023-01-17T22:31:40.522Z,0.20
2023-01-17T22:34:08.384Z,0.20
2023-01-17T22:36:36.379Z,0.20
2023-01-17T22:39:04.545Z,0.20
2023-01-17T22:41:34.604Z,0.20
2023-01-17T22:44:03.385Z,0.20
2023-01-17T22:46:35.442Z,0.30
2023-01-17T22:49:03.842Z,0.30
2023-01-17T22:51:31.789Z,0.30
2023-01-17T22:54:01.932Z,0.30
2023-01-17T22:56:32.219Z,0.30
2023-01-17T22:59:00.622Z,0.30
2023-01-17T23:01:30.900Z,0.30
2023-01-17T23:04:02.145Z,0.30
2023-01-17T23:06:31.480Z,0.30
2023-01-17T23:09:01.452Z,0.30
2023-01-17T23:11:42.431Z,0.30
2023-01-17T23:14:16.431Z,0.40
2023-01-17T23:17:12.591Z,0.30
2023-01-17T23:19:43.724Z,0.30
2023-01-17T23:22:19.059Z,0.40
2023-01-17T23:24:49.982Z,0.40
2023-01-17T23:27:38.183Z,0.40
2023-01-17T23:30:08.732Z,0.40
2023-01-17T23:32:36.705Z,0.50
2023-01-17T23:35:07.001Z,0.40
2023-01-17T23:37:52.343Z,0.50
2023-01-17T23:40:20.624Z,0.50
2023-01-17T23:43:14.633Z,0.50
2023-01-17T23:45:42.535Z,0.60
2023-01-17T23:48:11.344Z,0.60
2023-01-17T23:50:41.914Z,0.70
2023-01-17T23:53:10.845Z,0.70
2023-01-17T23:55:40.353Z,0.80
2023-01-17T23:58:09.854Z,0.80
